sensor_id;sensor_type;location;lat;lon;timestamp;temperature;humidity
8463;DHT22;4268;52.506;13.462;2023-04-16T00:02:14;10.40;99.90
8463;DHT22;4268;52.506;13.462;2023-04-16T00:04:39;10.40;99.90
8463;DHT22;4268;52.506;13.462;2023-04-16T00:07:06;10.40;99.90
8463;DHT22;4268;52.506;13.462;2023-04-16T00:09:31;10.40;99.90
8463;DHT22;4268;52.506;13.462;2023-04-16T00:11:57;10.40;99.90
8463;DHT22;4268;52.506;13.462;2023-04-16T00:14:22;10.40;99.90
8463;DHT22;4268;52.506;13.462;2023-04-16T00:16:48;10.40;99.90
8463;DHT22;4268;52.506;13.462;2023-04-16T00:19:13;10.50;99.90
8463;DHT22;4268;52.506;13.462;2023-04-16T00:21:39;10.40;99.90
8463;DHT22;4268;52.506;13.462;2023-04-16T00:24:04;10.40;99.90
8463;DHT22;4268;52.506;13.462;2023-04-16T00:26:30;10.40;99.90
8463;DHT22;4268;52.506;13.462;2023-04-16T00:28:55;10.40;99.90
8463;DHT22;4268;52.506;13.462;2023-04-16T00:31:28;10.40;99.90
8463;DHT22;4268;52.506;13.462;2023-04-16T00:33:54;10.40;99.90
8463;DHT22;4268;52.506;13.462;2023-04-16T00:36:20;10.40;99.90
8463;DHT22;4268;52.506;13.462;2023-04-16T00:38:46;10.40;99.90
8463;DHT22;4268;52.506;13.462;2023-04-16T00:41:11;10.40;99.90
8463;DHT22;4268;52.506;13.462;2023-04-16T00:43:37;10.40;99.90
8463;DHT22;4268;52.506;13.462;2023-04-16T00:46:04;10.40;99.90
8463;DHT22;4268;52.506;13.462;2023-04-16T00:48:31;10.40;99.90
8463;DHT22;4268;52.506;13.462;2023-04-16T00:50:58;10.20;99.90
8463;DHT22;4268;52.506;13.462;2023-04-16T00:53:26;10.30;99.90
8463;DHT22;4268;52.506;13.462;2023-04-16T00:55:52;10.40;99.90
8463;DHT22;4268;52.506;13.462;2023-04-16T00:58:18;10.40;99.90
8463;DHT22;4268;52.506;13.462;2023-04-16T01:00:43;10.40;99.90
8463;DHT22;4268;52.506;13.462;2023-04-16T01:03:10;10.30;99.90
8463;DHT22;4268;52.506;13.462;2023-04-16T01:05:36;10.40;99.90
8463;DHT22;4268;52.506;13.462;2023-04-16T01:08:01;10.30;99.90
8463;DHT22;4268;52.506;13.462;2023-04-16T01:10:27;10.40;99.90
8463;DHT22;4268;52.506;13.462;2023-04-16T01:12:52;10.40;99.90
8463;DHT22;4268;52.506;13.462;2023-04-16T01:15:18;10.40;99.90
8463;DHT22;4268;52.506;13.462;2023-04-16T01:17:46;10.40;99.90
8463;DHT22;4268;52.506;13.462;2023-04-16T01:20:12;10.30;99.90
8463;DHT22;4268;52.506;13.462;2023-04-16T01:22:37;10.40;99.90
8463;DHT22;4268;52.506;13.462;2023-04-16T01:25:03;10.40;99.90
8463;DHT22;4268;52.506;13.462;2023-04-16T01:27:29;10.40;99.90
8463;DHT22;4268;52.506;13.462;2023-04-16T01:29:55;10.40;99.90
8463;DHT22;4268;52.506;13.462;2023-04-16T01:32:21;10.40;99.90
8463;DHT22;4268;52.506;13.462;2023-04-16T01:34:46;10.40;99.90
8463;DHT22;4268;52.506;13.462;2023-04-16T01:37:12;10.30;99.90
8463;DHT22;4268;52.506;13.462;2023-04-16T01:39:38;10.30;99.90
8463;DHT22;4268;52.506;13.462;2023-04-16T01:42:03;10.40;99.90
8463;DHT22;4268;52.506;13.462;2023-04-16T01:44:29;10.40;99.90
8463;DHT22;4268;52.506;13.462;2023-04-16T01:46:55;10.40;99.90
8463;DHT22;4268;52.506;13.462;2023-04-16T01:49:21;10.40;99.90
8463;DHT22;4268;52.506;13.462;2023-04-16T01:51:47;10.40;99.90
8463;DHT22;4268;52.506;13.462;2023-04-16T01:54:12;10.40;99.90
8463;DHT22;4268;52.506;13.462;2023-04-16T01:56:38;10.40;99.90
8463;DHT22;4268;52.506;13.462;2023-04-16T01:59:03;10.40;99.90
8463;DHT22;4268;52.506;13.462;2023-04-16T02:01:29;10.40;99.90
8463;DHT22;4268;52.506;13.462;2023-04-16T02:03:55;10.30;99.90
8463;DHT22;4268;52.506;13.462;2023-04-16T02:06:21;10.40;99.90
8463;DHT22;4268;52.506;13.462;2023-04-16T02:08:46;10.30;99.90
8463;DHT22;4268;52.506;13.462;2023-04-16T02:11:12;10.40;99.90
8463;DHT22;4268;52.506;13.462;2023-04-16T02:13:38;10.40;99.90
8463;DHT22;4268;52.506;13.462;2023-04-16T02:16:03;10.70;99.90
8463;DHT22;4268;52.506;13.462;2023-04-16T02:18:29;10.30;99.90
8463;DHT22;4268;52.506;13.462;2023-04-16T02:20:57;10.40;99.90
8463;DHT22;4268;52.506;13.462;2023-04-16T02:23:23;10.30;99.90
8463;DHT22;4268;52.506;13.462;2023-04-16T02:25:49;10.40;99.90
8463;DHT22;4268;52.506;13.462;2023-04-16T02:28:15;10.40;99.90
8463;DHT22;4268;52.506;13.462;2023-04-16T02:30:42;10.40;99.90
8463;DHT22;4268;52.506;13.462;2023-04-16T02:33:08;10.40;99.90
8463;DHT22;4268;52.506;13.462;2023-04-16T02:35:35;10.30;99.90
8463;DHT22;4268;52.506;13.462;2023-04-16T02:38:02;10.30;99.90
8463;DHT22;4268;52.506;13.462;2023-04-16T02:40:29;10.30;99.90
8463;DHT22;4268;52.506;13.462;2023-04-16T02:42:54;10.30;99.90
8463;DHT22;4268;52.506;13.462;2023-04-16T02:45:20;10.30;99.90
8463;DHT22;4268;52.506;13.462;2023-04-16T02:47:47;10.30;99.90
8463;DHT22;4268;52.506;13.462;2023-04-16T02:50:12;10.30;99.90
8463;DHT22;4268;52.506;13.462;2023-04-16T02:52:38;10.30;99.90
8463;DHT22;4268;52.506;13.462;2023-04-16T02:55:04;10.30;99.90
8463;DHT22;4268;52.506;13.462;2023-04-16T02:57:30;10.30;99.90
8463;DHT22;4268;52.506;13.462;2023-04-16T02:59:55;10.80;99.90
8463;DHT22;4268;52.506;13.462;2023-04-16T03:02:21;10.30;99.90
8463;DHT22;4268;52.506;13.462;2023-04-16T03:04:46;10.30;99.90
8463;DHT22;4268;52.506;13.462;2023-04-16T03:07:12;10.20;99.90
8463;DHT22;4268;52.506;13.462;2023-04-16T03:09:38;10.20;99.90
8463;DHT22;4268;52.506;13.462;2023-04-16T03:12:04;10.20;99.90
8463;DHT22;4268;52.506;13.462;2023-04-16T03:14:30;10.20;99.90
8463;DHT22;4268;52.506;13.462;2023-04-16T03:16:56;10.20;99.90
8463;DHT22;4268;52.506;13.462;2023-04-16T03:19:21;11.50;99.90
8463;DHT22;4268;52.506;13.462;2023-04-16T03:21:47;10.20;99.90
8463;DHT22;4268;52.506;13.462;2023-04-16T03:24:12;10.20;99.90
8463;DHT22;4268;52.506;13.462;2023-04-16T03:26:38;10.20;99.90
8463;DHT22;4268;52.506;13.462;2023-04-16T03:29:04;10.10;99.90
8463;DHT22;4268;52.506;13.462;2023-04-16T03:31:29;10.10;99.90
8463;DHT22;4268;52.506;13.462;2023-04-16T03:33:55;10.10;99.90
8463;DHT22;4268;52.506;13.462;2023-04-16T03:36:21;10.10;99.90
8463;DHT22;4268;52.506;13.462;2023-04-16T03:38:47;10.10;99.90
8463;DHT22;4268;52.506;13.462;2023-04-16T03:41:13;10.10;99.90
8463;DHT22;4268;52.506;13.462;2023-04-16T03:43:39;10.10;99.90
8463;DHT22;4268;52.506;13.462;2023-04-16T03:46:05;10.10;99.90
8463;DHT22;4268;52.506;13.462;2023-04-16T03:48:30;10.10;99.90
8463;DHT22;4268;52.506;13.462;2023-04-16T03:50:56;10.10;99.90
8463;DHT22;4268;52.506;13.462;2023-04-16T03:53:21;10.00;99.90
8463;DHT22;4268;52.506;13.462;2023-04-16T03:55:50;10.00;99.90
8463;DHT22;4268;52.506;13.462;2023-04-16T03:58:16;10.00;99.90
8463;DHT22;4268;52.506;13.462;2023-04-16T04:00:42;10.00;99.90
8463;DHT22;4268;52.506;13.462;2023-04-16T04:03:11;10.00;99.90
8463;DHT22;4268;52.506;13.462;2023-04-16T04:05:40;10.00;99.90
8463;DHT22;4268;52.506;13.462;2023-04-16T04:08:06;10.00;99.90
8463;DHT22;4268;52.506;13.462;2023-04-16T04:10:32;9.90;99.90
8463;DHT22;4268;52.506;13.462;2023-04-16T04:12:58;9.90;99.90
8463;DHT22;4268;52.506;13.462;2023-04-16T04:15:24;9.90;99.90
8463;DHT22;4268;52.506;13.462;2023-04-16T04:17:49;9.90;99.90
8463;DHT22;4268;52.506;13.462;2023-04-16T04:20:15;9.90;99.90
8463;DHT22;4268;52.506;13.462;2023-04-16T04:22:40;9.90;99.90
8463;DHT22;4268;52.506;13.462;2023-04-16T04:25:07;9.90;99.90
8463;DHT22;4268;52.506;13.462;2023-04-16T04:27:33;9.90;99.90
8463;DHT22;4268;52.506;13.462;2023-04-16T04:29:58;9.90;99.90
8463;DHT22;4268;52.506;13.462;2023-04-16T04:32:24;10.00;99.90
8463;DHT22;4268;52.506;13.462;2023-04-16T04:34:49;9.90;99.90
8463;DHT22;4268;52.506;13.462;2023-04-16T04:37:15;9.90;99.90
8463;DHT22;4268;52.506;13.462;2023-04-16T04:39:40;9.90;99.90
8463;DHT22;4268;52.506;13.462;2023-04-16T04:42:06;9.90;99.90
8463;DHT22;4268;52.506;13.462;2023-04-16T04:44:32;9.90;99.90
8463;DHT22;4268;52.506;13.462;2023-04-16T04:46:57;10.00;99.90
8463;DHT22;4268;52.506;13.462;2023-04-16T04:49:23;10.00;99.90
8463;DHT22;4268;52.506;13.462;2023-04-16T04:51:48;10.00;99.90
8463;DHT22;4268;52.506;13.462;2023-04-16T04:54:14;10.00;99.90
8463;DHT22;4268;52.506;13.462;2023-04-16T04:56:40;10.00;99.90
8463;DHT22;4268;52.506;13.462;2023-04-16T04:59:05;9.90;99.90
8463;DHT22;4268;52.506;13.462;2023-04-16T05:01:31;9.90;99.90
8463;DHT22;4268;52.506;13.462;2023-04-16T05:03:56;9.90;99.90
8463;DHT22;4268;52.506;13.462;2023-04-16T05:06:22;9.90;99.90
8463;DHT22;4268;52.506;13.462;2023-04-16T05:08:47;9.90;99.90
8463;DHT22;4268;52.506;13.462;2023-04-16T05:11:13;9.90;99.90
8463;DHT22;4268;52.506;13.462;2023-04-16T05:13:38;9.90;99.90
8463;DHT22;4268;52.506;13.462;2023-04-16T05:16:04;9.90;99.90
8463;DHT22;4268;52.506;13.462;2023-04-16T05:18:29;9.90;99.90
8463;DHT22;4268;52.506;13.462;2023-04-16T05:20:56;9.90;99.90
8463;DHT22;4268;52.506;13.462;2023-04-16T05:23:22;9.90;99.90
8463;DHT22;4268;52.506;13.462;2023-04-16T05:25:47;9.90;99.90
8463;DHT22;4268;52.506;13.462;2023-04-16T05:28:14;9.90;99.90
8463;DHT22;4268;52.506;13.462;2023-04-16T05:30:40;9.90;99.90
8463;DHT22;4268;52.506;13.462;2023-04-16T05:33:05;9.90;99.90
8463;DHT22;4268;52.506;13.462;2023-04-16T05:35:30;9.90;99.90
8463;DHT22;4268;52.506;13.462;2023-04-16T05:37:56;9.90;99.90
8463;DHT22;4268;52.506;13.462;2023-04-16T05:40:21;10.10;99.90
8463;DHT22;4268;52.506;13.462;2023-04-16T05:42:47;9.90;99.90
8463;DHT22;4268;52.506;13.462;2023-04-16T05:45:12;10.00;99.90
8463;DHT22;4268;52.506;13.462;2023-04-16T05:47:38;9.90;99.90
8463;DHT22;4268;52.506;13.462;2023-04-16T05:50:04;10.00;99.90
8463;DHT22;4268;52.506;13.462;2023-04-16T05:52:29;10.00;99.90
8463;DHT22;4268;52.506;13.462;2023-04-16T05:54:55;10.00;99.90
8463;DHT22;4268;52.506;13.462;2023-04-16T05:57:20;10.00;99.90
8463;DHT22;4268;52.506;13.462;2023-04-16T05:59:46;10.00;99.90
8463;DHT22;4268;52.506;13.462;2023-04-16T06:02:11;10.00;99.90
8463;DHT22;4268;52.506;13.462;2023-04-16T06:04:40;10.10;99.90
8463;DHT22;4268;52.506;13.462;2023-04-16T06:07:05;10.10;99.90
8463;DHT22;4268;52.506;13.462;2023-04-16T06:09:31;10.10;99.90
8463;DHT22;4268;52.506;13.462;2023-04-16T06:11:56;10.10;99.90
8463;DHT22;4268;52.506;13.462;2023-04-16T06:14:22;10.10;99.90
8463;DHT22;4268;52.506;13.462;2023-04-16T06:16:47;10.10;99.90
8463;DHT22;4268;52.506;13.462;2023-04-16T06:19:13;10.10;99.90
8463;DHT22;4268;52.506;13.462;2023-04-16T06:21:39;10.10;99.90
8463;DHT22;4268;52.506;13.462;2023-04-16T06:24:04;10.10;99.90
8463;DHT22;4268;52.506;13.462;2023-04-16T06:26:30;10.10;99.90
8463;DHT22;4268;52.506;13.462;2023-04-16T06:28:55;10.20;99.90
8463;DHT22;4268;52.506;13.462;2023-04-16T06:31:21;10.40;99.90
8463;DHT22;4268;52.506;13.462;2023-04-16T06:33:46;10.10;99.90
8463;DHT22;4268;52.506;13.462;2023-04-16T06:36:12;10.30;99.90
8463;DHT22;4268;52.506;13.462;2023-04-16T06:38:37;10.30;99.90
8463;DHT22;4268;52.506;13.462;2023-04-16T06:41:03;10.30;99.90
8463;DHT22;4268;52.506;13.462;2023-04-16T06:43:29;10.40;99.90
8463;DHT22;4268;52.506;13.462;2023-04-16T06:45:55;10.40;99.90
8463;DHT22;4268;52.506;13.462;2023-04-16T06:48:21;10.40;99.90
8463;DHT22;4268;52.506;13.462;2023-04-16T06:50:46;10.40;99.90
8463;DHT22;4268;52.506;13.462;2023-04-16T06:53:12;10.40;99.90
8463;DHT22;4268;52.506;13.462;2023-04-16T06:55:37;10.40;99.90
8463;DHT22;4268;52.506;13.462;2023-04-16T06:58:03;10.40;99.90
8463;DHT22;4268;52.506;13.462;2023-04-16T07:00:28;10.50;99.90
8463;DHT22;4268;52.506;13.462;2023-04-16T07:02:54;10.50;99.90
8463;DHT22;4268;52.506;13.462;2023-04-16T07:05:19;10.50;99.90
8463;DHT22;4268;52.506;13.462;2023-04-16T07:07:45;10.50;99.90
8463;DHT22;4268;52.506;13.462;2023-04-16T07:10:10;10.50;99.90
8463;DHT22;4268;52.506;13.462;2023-04-16T07:12:36;10.50;99.90
8463;DHT22;4268;52.506;13.462;2023-04-16T07:15:02;10.50;99.90
8463;DHT22;4268;52.506;13.462;2023-04-16T07:17:27;10.50;99.90
8463;DHT22;4268;52.506;13.462;2023-04-16T07:19:53;10.50;99.90
8463;DHT22;4268;52.506;13.462;2023-04-16T07:22:19;10.50;99.90
8463;DHT22;4268;52.506;13.462;2023-04-16T07:24:44;10.50;99.90
8463;DHT22;4268;52.506;13.462;2023-04-16T07:27:10;10.50;99.90
8463;DHT22;4268;52.506;13.462;2023-04-16T07:29:35;10.60;99.90
8463;DHT22;4268;52.506;13.462;2023-04-16T07:32:01;10.60;99.90
8463;DHT22;4268;52.506;13.462;2023-04-16T07:34:26;10.60;99.90
8463;DHT22;4268;52.506;13.462;2023-04-16T07:36:52;10.60;99.90
8463;DHT22;4268;52.506;13.462;2023-04-16T07:39:17;10.60;99.90
8463;DHT22;4268;52.506;13.462;2023-04-16T07:41:43;10.60;99.90
8463;DHT22;4268;52.506;13.462;2023-04-16T07:44:08;10.60;99.90
8463;DHT22;4268;52.506;13.462;2023-04-16T07:46:34;10.70;99.90
8463;DHT22;4268;52.506;13.462;2023-04-16T07:48:59;10.70;99.90
8463;DHT22;4268;52.506;13.462;2023-04-16T07:51:25;10.70;99.90
8463;DHT22;4268;52.506;13.462;2023-04-16T07:53:51;10.70;99.90
8463;DHT22;4268;52.506;13.462;2023-04-16T07:56:16;10.70;99.90
8463;DHT22;4268;52.506;13.462;2023-04-16T07:58:41;10.60;99.90
8463;DHT22;4268;52.506;13.462;2023-04-16T08:01:07;10.70;99.90
8463;DHT22;4268;52.506;13.462;2023-04-16T08:03:32;10.70;99.90
8463;DHT22;4268;52.506;13.462;2023-04-16T08:05:58;10.70;99.90
8463;DHT22;4268;52.506;13.462;2023-04-16T08:08:23;10.70;99.90
8463;DHT22;4268;52.506;13.462;2023-04-16T08:10:49;10.70;99.90
8463;DHT22;4268;52.506;13.462;2023-04-16T08:13:21;10.70;99.90
8463;DHT22;4268;52.506;13.462;2023-04-16T08:15:46;10.70;99.90
8463;DHT22;4268;52.506;13.462;2023-04-16T08:18:12;10.70;99.90
8463;DHT22;4268;52.506;13.462;2023-04-16T08:20:40;10.60;99.90
8463;DHT22;4268;52.506;13.462;2023-04-16T08:23:05;10.60;99.90
8463;DHT22;4268;52.506;13.462;2023-04-16T08:25:31;10.60;99.90
8463;DHT22;4268;52.506;13.462;2023-04-16T08:27:56;10.60;99.90
8463;DHT22;4268;52.506;13.462;2023-04-16T08:30:22;10.60;99.90
8463;DHT22;4268;52.506;13.462;2023-04-16T08:32:48;10.60;99.90
8463;DHT22;4268;52.506;13.462;2023-04-16T08:35:13;10.50;99.90
8463;DHT22;4268;52.506;13.462;2023-04-16T08:37:39;10.60;99.90
8463;DHT22;4268;52.506;13.462;2023-04-16T08:40:05;10.60;99.90
8463;DHT22;4268;52.506;13.462;2023-04-16T08:42:33;10.60;99.90
8463;DHT22;4268;52.506;13.462;2023-04-16T08:45:15;10.60;99.90
8463;DHT22;4268;52.506;13.462;2023-04-16T08:47:45;10.60;99.90
8463;DHT22;4268;52.506;13.462;2023-04-16T08:50:10;10.70;99.90
8463;DHT22;4268;52.506;13.462;2023-04-16T08:52:44;10.70;99.90
8463;DHT22;4268;52.506;13.462;2023-04-16T08:55:13;10.70;99.90
8463;DHT22;4268;52.506;13.462;2023-04-16T08:57:53;10.80;99.90
8463;DHT22;4268;52.506;13.462;2023-04-16T09:00:22;10.80;99.90
8463;DHT22;4268;52.506;13.462;2023-04-16T09:02:48;10.80;99.90
8463;DHT22;4268;52.506;13.462;2023-04-16T09:05:15;10.70;99.90
8463;DHT22;4268;52.506;13.462;2023-04-16T09:07:47;10.80;99.90
8463;DHT22;4268;52.506;13.462;2023-04-16T09:10:14;10.70;99.90
8463;DHT22;4268;52.506;13.462;2023-04-16T09:12:43;10.70;99.90
8463;DHT22;4268;52.506;13.462;2023-04-16T09:15:10;10.70;99.90
8463;DHT22;4268;52.506;13.462;2023-04-16T09:17:36;10.70;99.90
8463;DHT22;4268;52.506;13.462;2023-04-16T09:20:04;10.70;99.90
8463;DHT22;4268;52.506;13.462;2023-04-16T09:22:30;10.80;99.90
8463;DHT22;4268;52.506;13.462;2023-04-16T09:24:56;11.00;99.90
8463;DHT22;4268;52.506;13.462;2023-04-16T09:27:21;11.10;99.90
8463;DHT22;4268;52.506;13.462;2023-04-16T09:29:47;11.30;99.90
8463;DHT22;4268;52.506;13.462;2023-04-16T09:32:13;11.40;99.90
8463;DHT22;4268;52.506;13.462;2023-04-16T09:34:59;11.50;99.90
8463;DHT22;4268;52.506;13.462;2023-04-16T09:37:26;11.60;99.90
8463;DHT22;4268;52.506;13.462;2023-04-16T09:39:58;11.50;99.90
8463;DHT22;4268;52.506;13.462;2023-04-16T09:42:29;11.50;99.90
8463;DHT22;4268;52.506;13.462;2023-04-16T09:44:56;11.50;99.90
8463;DHT22;4268;52.506;13.462;2023-04-16T09:47:24;11.50;99.90
8463;DHT22;4268;52.506;13.462;2023-04-16T09:49:49;11.40;99.90
8463;DHT22;4268;52.506;13.462;2023-04-16T09:52:17;11.40;99.90
8463;DHT22;4268;52.506;13.462;2023-04-16T09:54:53;11.30;99.90
8463;DHT22;4268;52.506;13.462;2023-04-16T09:57:20;11.30;99.90
8463;DHT22;4268;52.506;13.462;2023-04-16T09:59:53;11.30;99.90
8463;DHT22;4268;52.506;13.462;2023-04-16T10:02:28;11.20;99.90
8463;DHT22;4268;52.506;13.462;2023-04-16T10:04:54;11.20;99.90
8463;DHT22;4268;52.506;13.462;2023-04-16T10:07:21;11.30;99.90
8463;DHT22;4268;52.506;13.462;2023-04-16T10:09:48;11.30;99.90
8463;DHT22;4268;52.506;13.462;2023-04-16T10:12:14;11.30;99.90
8463;DHT22;4268;52.506;13.462;2023-04-16T10:14:41;11.30;99.90
8463;DHT22;4268;52.506;13.462;2023-04-16T10:17:07;11.30;99.90
8463;DHT22;4268;52.506;13.462;2023-04-16T10:19:33;11.30;99.90
8463;DHT22;4268;52.506;13.462;2023-04-16T10:22:00;11.40;99.90
8463;DHT22;4268;52.506;13.462;2023-04-16T10:24:26;11.40;99.90
8463;DHT22;4268;52.506;13.462;2023-04-16T10:26:52;11.10;99.90
8463;DHT22;4268;52.506;13.462;2023-04-16T10:29:20;11.50;99.90
8463;DHT22;4268;52.506;13.462;2023-04-16T10:31:46;11.50;99.90
8463;DHT22;4268;52.506;13.462;2023-04-16T10:34:12;11.50;99.90
8463;DHT22;4268;52.506;13.462;2023-04-16T10:36:38;11.50;99.90
8463;DHT22;4268;52.506;13.462;2023-04-16T10:39:11;11.50;99.90
8463;DHT22;4268;52.506;13.462;2023-04-16T10:41:37;11.50;99.90
8463;DHT22;4268;52.506;13.462;2023-04-16T10:44:08;11.60;99.90
8463;DHT22;4268;52.506;13.462;2023-04-16T10:46:39;11.60;99.90
8463;DHT22;4268;52.506;13.462;2023-04-16T10:49:17;11.70;99.90
8463;DHT22;4268;52.506;13.462;2023-04-16T10:51:52;11.80;99.90
8463;DHT22;4268;52.506;13.462;2023-04-16T10:54:39;11.80;99.90
8463;DHT22;4268;52.506;13.462;2023-04-16T10:57:09;11.80;99.90
8463;DHT22;4268;52.506;13.462;2023-04-16T10:59:36;11.80;99.90
8463;DHT22;4268;52.506;13.462;2023-04-16T11:02:07;11.80;99.90
8463;DHT22;4268;52.506;13.462;2023-04-16T11:04:35;11.80;99.90
8463;DHT22;4268;52.506;13.462;2023-04-16T11:07:05;11.80;99.90
8463;DHT22;4268;52.506;13.462;2023-04-16T11:10:07;11.80;99.90
8463;DHT22;4268;52.506;13.462;2023-04-16T11:15:10;11.80;99.90
8463;DHT22;4268;52.506;13.462;2023-04-16T11:17:37;12.00;99.90
8463;DHT22;4268;52.506;13.462;2023-04-16T11:20:28;12.20;99.90
8463;DHT22;4268;52.506;13.462;2023-04-16T11:22:55;12.30;99.90
8463;DHT22;4268;52.506;13.462;2023-04-16T11:25:27;12.30;99.90
8463;DHT22;4268;52.506;13.462;2023-04-16T11:27:58;12.40;99.90
8463;DHT22;4268;52.506;13.462;2023-04-16T11:30:28;12.40;99.90
8463;DHT22;4268;52.506;13.462;2023-04-16T11:32:54;12.20;99.90
8463;DHT22;4268;52.506;13.462;2023-04-16T11:35:20;12.10;99.90
8463;DHT22;4268;52.506;13.462;2023-04-16T11:37:46;12.00;99.90
8463;DHT22;4268;52.506;13.462;2023-04-16T11:40:13;11.90;99.90
8463;DHT22;4268;52.506;13.462;2023-04-16T11:42:39;11.90;99.90
8463;DHT22;4268;52.506;13.462;2023-04-16T11:45:06;11.80;99.90
8463;DHT22;4268;52.506;13.462;2023-04-16T11:47:49;11.80;99.90
8463;DHT22;4268;52.506;13.462;2023-04-16T11:50:20;11.80;99.90
8463;DHT22;4268;52.506;13.462;2023-04-16T11:52:47;11.90;99.90
8463;DHT22;4268;52.506;13.462;2023-04-16T11:55:13;11.90;99.90
8463;DHT22;4268;52.506;13.462;2023-04-16T11:57:39;12.00;99.90
8463;DHT22;4268;52.506;13.462;2023-04-16T12:00:07;12.10;99.90
8463;DHT22;4268;52.506;13.462;2023-04-16T12:05:35;12.40;99.90
8463;DHT22;4268;52.506;13.462;2023-04-16T12:08:05;12.50;99.90
8463;DHT22;4268;52.506;13.462;2023-04-16T12:10:35;12.40;99.90
8463;DHT22;4268;52.506;13.462;2023-04-16T12:13:15;12.40;99.90
8463;DHT22;4268;52.506;13.462;2023-04-16T12:15:52;12.20;99.90
8463;DHT22;4268;52.506;13.462;2023-04-16T12:18:19;12.20;99.90
8463;DHT22;4268;52.506;13.462;2023-04-16T12:20:45;12.10;99.90
8463;DHT22;4268;52.506;13.462;2023-04-16T12:23:28;12.00;99.90
8463;DHT22;4268;52.506;13.462;2023-04-16T12:25:55;11.90;99.90
8463;DHT22;4268;52.506;13.462;2023-04-16T12:28:32;11.90;99.90
8463;DHT22;4268;52.506;13.462;2023-04-16T12:30:58;11.80;99.90
8463;DHT22;4268;52.506;13.462;2023-04-16T12:33:24;11.90;99.90
8463;DHT22;4268;52.506;13.462;2023-04-16T12:35:49;11.80;99.90
8463;DHT22;4268;52.506;13.462;2023-04-16T12:38:15;11.70;99.90
8463;DHT22;4268;52.506;13.462;2023-04-16T12:40:41;11.60;99.90
8463;DHT22;4268;52.506;13.462;2023-04-16T12:43:08;11.60;99.90
8463;DHT22;4268;52.506;13.462;2023-04-16T12:45:34;11.60;99.90
8463;DHT22;4268;52.506;13.462;2023-04-16T12:47:59;11.40;99.90
8463;DHT22;4268;52.506;13.462;2023-04-16T12:50:25;11.60;99.90
8463;DHT22;4268;52.506;13.462;2023-04-16T12:52:50;10.90;99.90
8463;DHT22;4268;52.506;13.462;2023-04-16T12:55:16;11.50;99.90
8463;DHT22;4268;52.506;13.462;2023-04-16T12:57:41;11.50;99.90
8463;DHT22;4268;52.506;13.462;2023-04-16T13:00:07;11.50;99.90
8463;DHT22;4268;52.506;13.462;2023-04-16T13:02:34;11.50;99.90
8463;DHT22;4268;52.506;13.462;2023-04-16T13:05:00;11.70;99.90
8463;DHT22;4268;52.506;13.462;2023-04-16T13:07:26;11.50;99.90
8463;DHT22;4268;52.506;13.462;2023-04-16T13:09:52;11.50;99.90
8463;DHT22;4268;52.506;13.462;2023-04-16T13:12:17;11.50;99.90
8463;DHT22;4268;52.506;13.462;2023-04-16T13:14:43;11.40;99.90
8463;DHT22;4268;52.506;13.462;2023-04-16T13:17:10;11.40;99.90
8463;DHT22;4268;52.506;13.462;2023-04-16T13:19:35;11.40;99.90
8463;DHT22;4268;52.506;13.462;2023-04-16T13:22:01;11.30;99.90
8463;DHT22;4268;52.506;13.462;2023-04-16T13:24:27;11.80;99.90
8463;DHT22;4268;52.506;13.462;2023-04-16T13:26:52;11.50;99.90
8463;DHT22;4268;52.506;13.462;2023-04-16T13:29:21;11.50;99.90
8463;DHT22;4268;52.506;13.462;2023-04-16T13:31:47;11.40;99.90
8463;DHT22;4268;52.506;13.462;2023-04-16T13:34:13;10.80;99.90
8463;DHT22;4268;52.506;13.462;2023-04-16T13:36:38;11.30;99.90
8463;DHT22;4268;52.506;13.462;2023-04-16T13:39:04;11.60;99.90
8463;DHT22;4268;52.506;13.462;2023-04-16T13:41:35;11.70;99.90
8463;DHT22;4268;52.506;13.462;2023-04-16T13:44:01;11.70;99.90
8463;DHT22;4268;52.506;13.462;2023-04-16T13:46:26;11.90;99.90
8463;DHT22;4268;52.506;13.462;2023-04-16T13:48:53;11.80;99.90
8463;DHT22;4268;52.506;13.462;2023-04-16T13:51:19;11.80;99.90
8463;DHT22;4268;52.506;13.462;2023-04-16T13:53:44;11.90;99.90
8463;DHT22;4268;52.506;13.462;2023-04-16T13:56:10;11.80;99.90
8463;DHT22;4268;52.506;13.462;2023-04-16T13:58:36;12.00;99.90
8463;DHT22;4268;52.506;13.462;2023-04-16T14:01:02;12.10;99.90
8463;DHT22;4268;52.506;13.462;2023-04-16T14:03:28;12.00;99.90
8463;DHT22;4268;52.506;13.462;2023-04-16T14:05:53;11.80;99.90
8463;DHT22;4268;52.506;13.462;2023-04-16T14:08:19;12.60;99.90
8463;DHT22;4268;52.506;13.462;2023-04-16T14:10:48;12.60;99.90
8463;DHT22;4268;52.506;13.462;2023-04-16T14:13:14;12.80;99.90
8463;DHT22;4268;52.506;13.462;2023-04-16T14:15:41;13.60;99.90
8463;DHT22;4268;52.506;13.462;2023-04-16T14:18:07;13.00;99.90
8463;DHT22;4268;52.506;13.462;2023-04-16T14:20:32;13.50;99.90
8463;DHT22;4268;52.506;13.462;2023-04-16T14:22:58;13.00;99.90
8463;DHT22;4268;52.506;13.462;2023-04-16T14:25:23;13.10;99.90
8463;DHT22;4268;52.506;13.462;2023-04-16T14:27:49;13.00;99.90
8463;DHT22;4268;52.506;13.462;2023-04-16T14:30:15;13.00;99.90
8463;DHT22;4268;52.506;13.462;2023-04-16T14:32:41;12.80;99.90
8463;DHT22;4268;52.506;13.462;2023-04-16T14:35:06;12.70;99.90
8463;DHT22;4268;52.506;13.462;2023-04-16T14:37:32;12.60;99.90
8463;DHT22;4268;52.506;13.462;2023-04-16T14:40:00;12.50;99.90
8463;DHT22;4268;52.506;13.462;2023-04-16T14:42:26;12.30;99.90
8463;DHT22;4268;52.506;13.462;2023-04-16T14:44:52;12.30;99.90
8463;DHT22;4268;52.506;13.462;2023-04-16T14:47:17;12.10;99.90
8463;DHT22;4268;52.506;13.462;2023-04-16T14:49:43;11.90;99.90
8463;DHT22;4268;52.506;13.462;2023-04-16T14:52:08;11.90;99.90
8463;DHT22;4268;52.506;13.462;2023-04-16T14:54:33;11.90;99.90
8463;DHT22;4268;52.506;13.462;2023-04-16T14:56:59;11.80;99.90
8463;DHT22;4268;52.506;13.462;2023-04-16T14:59:26;11.70;99.90
8463;DHT22;4268;52.506;13.462;2023-04-16T15:01:53;12.00;99.90
8463;DHT22;4268;52.506;13.462;2023-04-16T15:04:19;11.60;99.90
8463;DHT22;4268;52.506;13.462;2023-04-16T15:06:45;11.60;99.90
8463;DHT22;4268;52.506;13.462;2023-04-16T15:09:10;11.50;99.90
8463;DHT22;4268;52.506;13.462;2023-04-16T15:11:37;11.50;99.90
8463;DHT22;4268;52.506;13.462;2023-04-16T15:14:02;11.50;99.90
8463;DHT22;4268;52.506;13.462;2023-04-16T15:16:28;10.60;99.90
8463;DHT22;4268;52.506;13.462;2023-04-16T15:18:54;11.40;99.90
8463;DHT22;4268;52.506;13.462;2023-04-16T15:21:20;11.40;99.90
8463;DHT22;4268;52.506;13.462;2023-04-16T15:23:45;11.30;99.90
8463;DHT22;4268;52.506;13.462;2023-04-16T15:26:11;12.60;99.90
8463;DHT22;4268;52.506;13.462;2023-04-16T15:28:36;11.30;99.90
8463;DHT22;4268;52.506;13.462;2023-04-16T15:31:02;11.30;99.90
8463;DHT22;4268;52.506;13.462;2023-04-16T15:33:27;10.70;99.90
8463;DHT22;4268;52.506;13.462;2023-04-16T15:35:53;11.30;99.90
8463;DHT22;4268;52.506;13.462;2023-04-16T15:38:18;11.30;99.90
8463;DHT22;4268;52.506;13.462;2023-04-16T15:40:45;11.30;99.90
8463;DHT22;4268;52.506;13.462;2023-04-16T15:43:11;11.40;99.90
8463;DHT22;4268;52.506;13.462;2023-04-16T15:45:36;11.30;99.90
8463;DHT22;4268;52.506;13.462;2023-04-16T15:48:02;11.30;99.90
8463;DHT22;4268;52.506;13.462;2023-04-16T15:50:30;11.20;99.90